createdAt,value
2023-03-29T00:00:57.884Z,0.00
2023-03-29T00:01:57.937Z,0.00
2023-03-29T00:02:58.001Z,0.00
2023-03-29T00:03:59.273Z,0.00
2023-03-29T00:04:57.858Z,0.00
2023-03-29T00:05:57.863Z,0.00
2023-03-29T00:06:57.831Z,0.00
2023-03-29T00:07:57.816Z,0.00
2023-03-29T00:08:57.818Z,0.00
2023-03-29T00:09:57.799Z,0.00
2023-03-29T00:10:57.782Z,0.00
2023-03-29T00:11:57.928Z,0.00
2023-03-29T00:12:57.777Z,0.00
2023-03-29T00:13:57.749Z,0.00
2023-03-29T00:14:57.744Z,0.00
2023-03-29T00:15:57.737Z,0.00
2023-03-29T00:16:57.808Z,0.00
2023-03-29T00:17:57.892Z,0.00
2023-03-29T00:18:57.698Z,0.00
2023-03-29T00:19:57.699Z,0.00
2023-03-29T00:20:57.676Z,0.00
2023-03-29T00:21:57.693Z,0.00
2023-03-29T00:22:57.682Z,0.00
2023-03-29T00:23:57.717Z,0.00
2023-03-29T00:24:57.646Z,0.00
2023-03-29T00:25:57.636Z,0.00
2023-03-29T00:26:57.635Z,0.00
2023-03-29T00:27:57.608Z,0.00
2023-03-29T00:28:57.593Z,0.00
2023-03-29T00:29:57.719Z,0.00
2023-03-29T00:30:57.599Z,0.00
2023-03-29T00:31:57.608Z,0.00
2023-03-29T00:32:57.612Z,0.00
2023-03-29T00:33:57.563Z,0.00
2023-03-29T00:34:57.532Z,0.00
2023-03-29T00:35:57.592Z,0.00
2023-03-29T00:36:57.507Z,0.00
2023-03-29T00:37:57.507Z,0.00
2023-03-29T00:38:57.497Z,0.00
2023-03-29T00:39:57.489Z,0.00
2023-03-29T00:40:57.472Z,0.00
2023-03-29T00:41:57.600Z,0.00
2023-03-29T00:42:57.553Z,0.00
2023-03-29T00:43:57.447Z,0.00
2023-03-29T00:44:57.448Z,0.00
2023-03-29T00:45:57.451Z,0.00
2023-03-29T00:46:57.408Z,0.00
2023-03-29T00:47:57.682Z,0.00
2023-03-29T00:48:57.390Z,0.00
2023-03-29T00:49:57.390Z,0.00
2023-03-29T00:50:57.364Z,0.00
2023-03-29T00:51:57.364Z,0.00
2023-03-29T00:52:57.350Z,0.00
2023-03-29T00:53:57.360Z,0.00
2023-03-29T00:54:57.344Z,0.00
2023-03-29T00:55:57.320Z,0.00
2023-03-29T00:56:57.368Z,0.00
2023-03-29T00:57:57.302Z,0.00
2023-03-29T00:58:57.343Z,0.00
2023-03-29T00:59:57.414Z,0.00
2023-03-29T01:00:57.289Z,0.00
2023-03-29T01:01:57.287Z,0.00
2023-03-29T01:02:57.289Z,0.00
2023-03-29T01:03:57.278Z,0.00
2023-03-29T01:04:57.226Z,0.00
2023-03-29T01:05:57.373Z,0.00
2023-03-29T01:06:57.296Z,0.00
2023-03-29T01:07:57.202Z,0.00
2023-03-29T01:08:57.192Z,0.00
2023-03-29T01:09:57.174Z,0.00
2023-03-29T01:10:57.173Z,0.00
2023-03-29T01:11:57.180Z,0.00
2023-03-29T01:12:57.151Z,0.00
2023-03-29T01:13:57.139Z,0.00
2023-03-29T01:14:57.118Z,0.00
2023-03-29T01:15:57.198Z,0.00
2023-03-29T01:16:57.101Z,0.00
2023-03-29T01:17:57.340Z,0.00
2023-03-29T01:18:57.090Z,0.00
2023-03-29T01:19:57.081Z,0.00
2023-03-29T01:20:57.076Z,0.00
2023-03-29T01:21:57.053Z,0.00
2023-03-29T01:22:57.036Z,0.00
2023-03-29T01:23:57.277Z,0.00
2023-03-29T01:24:57.020Z,0.00
2023-03-29T01:25:57.008Z,0.00
2023-03-29T01:26:57.004Z,0.00
2023-03-29T01:27:56.988Z,0.00
2023-03-29T01:28:56.979Z,0.00
2023-03-29T01:29:57.101Z,0.00
2023-03-29T01:30:56.954Z,0.00
2023-03-29T01:31:57.012Z,0.00
2023-03-29T01:32:57.118Z,0.00
2023-03-29T01:33:56.929Z,0.00
2023-03-29T01:34:56.942Z,0.00
2023-03-29T01:35:56.988Z,0.00
2023-03-29T01:36:56.894Z,0.00
2023-03-29T01:37:56.924Z,0.00
2023-03-29T01:38:56.889Z,0.00
2023-03-29T01:39:56.860Z,0.00
2023-03-29T01:40:56.881Z,0.00
2023-03-29T01:41:56.982Z,0.00
2023-03-29T01:42:56.824Z,0.00
2023-03-29T01:43:56.828Z,0.00
2023-03-29T01:44:56.814Z,0.00
2023-03-29T01:45:56.844Z,0.00
2023-03-29T01:46:56.791Z,0.00
2023-03-29T01:47:56.994Z,0.00
2023-03-29T01:48:56.785Z,0.00
2023-03-29T01:49:56.768Z,0.00
2023-03-29T01:50:56.759Z,0.00
2023-03-29T01:51:56.760Z,0.00
2023-03-29T01:52:56.741Z,0.00
2023-03-29T01:53:56.853Z,0.00
2023-03-29T01:54:56.727Z,0.00
2023-03-29T01:55:56.697Z,0.00
2023-03-29T01:56:56.724Z,0.00
2023-03-29T01:57:56.693Z,0.00
2023-03-29T01:58:56.660Z,0.00
2023-03-29T01:59:56.693Z,0.00
2023-03-29T02:00:56.696Z,0.00
2023-03-29T02:01:56.811Z,0.00
2023-03-29T02:02:56.688Z,0.00
2023-03-29T02:03:56.610Z,0.00
2023-03-29T02:04:56.611Z,0.00
2023-03-29T02:05:56.721Z,0.00
2023-03-29T02:06:56.597Z,0.00
2023-03-29T02:07:56.577Z,0.00
2023-03-29T02:08:56.577Z,0.00
2023-03-29T02:09:56.549Z,0.00
2023-03-29T02:10:56.551Z,0.00
2023-03-29T02:11:56.658Z,0.00
2023-03-29T02:12:56.515Z,0.00
2023-03-29T02:13:56.511Z,0.00
2023-03-29T02:14:56.502Z,0.00
2023-03-29T02:15:56.543Z,0.00
2023-03-29T02:16:56.487Z,0.00
2023-03-29T02:17:56.636Z,0.00
2023-03-29T02:18:56.488Z,0.00
2023-03-29T02:19:56.463Z,0.00
2023-03-29T02:20:56.438Z,0.00
2023-03-29T02:21:56.429Z,0.00
2023-03-29T02:22:56.423Z,0.00
2023-03-29T02:23:56.537Z,0.00
2023-03-29T02:24:56.398Z,0.00
2023-03-29T02:25:56.393Z,0.00
2023-03-29T02:26:56.370Z,0.00
2023-03-29T02:27:56.378Z,0.00
2023-03-29T02:28:56.373Z,0.00
2023-03-29T02:29:56.636Z,0.00
2023-03-29T02:31:55.736Z,0.00
2023-03-29T02:32:56.811Z,0.00
2023-03-29T02:33:56.719Z,0.00
2023-03-29T02:34:56.863Z,0.00
2023-03-29T02:35:56.767Z,0.00
2023-03-29T02:36:56.687Z,0.00
2023-03-29T02:37:56.669Z,0.00
2023-03-29T02:38:56.671Z,0.00
2023-03-29T02:39:56.647Z,0.00
2023-03-29T02:40:56.795Z,0.00
2023-03-29T02:41:56.634Z,0.00
2023-03-29T02:42:56.626Z,0.00
2023-03-29T02:43:56.607Z,0.00
2023-03-29T02:44:56.609Z,0.00
2023-03-29T02:45:56.591Z,0.00
2023-03-29T02:46:56.686Z,0.00
2023-03-29T02:47:56.612Z,0.00
2023-03-29T02:48:56.564Z,0.00
2023-03-29T02:49:56.546Z,0.00
2023-03-29T02:50:56.552Z,0.00
2023-03-29T02:51:56.525Z,0.00
2023-03-29T02:52:56.566Z,0.00
2023-03-29T02:53:56.542Z,0.00
2023-03-29T02:54:56.498Z,0.00
2023-03-29T02:55:56.482Z,0.00
2023-03-29T02:56:56.548Z,0.00
2023-03-29T02:57:56.461Z,0.00
2023-03-29T02:58:56.642Z,0.00
2023-03-29T02:59:56.452Z,0.00
2023-03-29T03:00:56.436Z,0.00
2023-03-29T03:01:56.465Z,0.00
2023-03-29T03:02:56.488Z,0.00
2023-03-29T03:03:56.473Z,0.00
2023-03-29T03:04:56.544Z,0.00
2023-03-29T03:05:56.388Z,0.00
2023-03-29T03:06:56.386Z,0.00
2023-03-29T03:07:56.355Z,0.00
2023-03-29T03:08:56.353Z,0.00
2023-03-29T03:09:56.330Z,0.00
2023-03-29T03:10:56.478Z,0.00
2023-03-29T03:11:56.318Z,0.00
2023-03-29T03:12:56.315Z,0.00
2023-03-29T03:13:56.292Z,0.00
2023-03-29T03:14:56.289Z,0.00
2023-03-29T03:15:56.296Z,0.00
2023-03-29T03:16:56.441Z,0.00
2023-03-29T03:17:56.308Z,0.00
2023-03-29T03:18:56.252Z,0.00
2023-03-29T03:19:56.229Z,0.00
2023-03-29T03:20:56.220Z,0.00
2023-03-29T03:21:56.203Z,0.00
2023-03-29T03:22:56.248Z,0.00
2023-03-29T03:23:56.183Z,0.00
2023-03-29T03:24:56.172Z,0.00
2023-03-29T03:25:56.153Z,0.00
2023-03-29T03:26:56.158Z,0.00
2023-03-29T03:27:56.144Z,0.00
2023-03-29T03:28:56.313Z,0.00
2023-03-29T03:29:56.130Z,0.00
2023-03-29T03:30:57.305Z,0.00
2023-03-29T03:32:03.543Z,0.00
2023-03-29T03:32:56.165Z,0.00
2023-03-29T03:33:56.074Z,0.00
2023-03-29T03:34:56.330Z,0.00
2023-03-29T03:35:56.110Z,0.00
2023-03-29T03:36:56.043Z,0.00
2023-03-29T03:37:56.042Z,0.00
2023-03-29T03:38:56.021Z,0.00
2023-03-29T03:39:56.010Z,0.00
2023-03-29T03:40:56.142Z,0.00
2023-03-29T03:41:55.988Z,0.00
2023-03-29T03:42:55.990Z,0.00
2023-03-29T03:43:55.976Z,0.00
2023-03-29T03:44:55.961Z,0.00
2023-03-29T03:45:56.039Z,0.00
2023-03-29T03:46:56.120Z,0.00
2023-03-29T03:47:56.015Z,0.00
2023-03-29T03:48:55.926Z,0.00
2023-03-29T03:49:55.911Z,0.00
2023-03-29T03:50:55.913Z,0.00
2023-03-29T03:51:55.883Z,0.00
2023-03-29T03:52:56.004Z,0.00
2023-03-29T03:53:55.871Z,0.00
2023-03-29T03:54:55.853Z,0.00
2023-03-29T03:55:55.876Z,0.00
2023-03-29T03:56:55.860Z,0.00
2023-03-29T03:57:55.822Z,0.00
2023-03-29T03:58:55.944Z,0.00
2023-03-29T03:59:55.799Z,0.00
2023-03-29T04:00:55.790Z,0.00
2023-03-29T04:01:55.844Z,0.00
2023-03-29T04:02:55.844Z,0.00
2023-03-29T04:03:55.840Z,0.00
2023-03-29T04:04:55.895Z,0.00
2023-03-29T04:05:55.736Z,0.00
2023-03-29T04:06:55.733Z,0.00
2023-03-29T04:07:55.854Z,0.00
2023-03-29T04:08:55.810Z,0.00
2023-03-29T04:09:55.730Z,0.00
2023-03-29T04:10:55.839Z,0.00
2023-03-29T04:11:55.670Z,0.00
2023-03-29T04:12:55.670Z,0.00
2023-03-29T04:13:55.681Z,0.00
2023-03-29T04:14:55.673Z,0.00
2023-03-29T04:15:55.716Z,0.00
2023-03-29T04:16:55.770Z,0.00
2023-03-29T04:17:55.659Z,0.00
2023-03-29T04:18:55.664Z,0.00
2023-03-29T04:19:55.582Z,0.00
2023-03-29T04:20:55.576Z,0.00
2023-03-29T04:21:55.566Z,0.00
2023-03-29T04:22:55.709Z,0.00
2023-03-29T04:23:55.542Z,0.00
2023-03-29T04:24:55.531Z,0.00
2023-03-29T04:25:55.533Z,0.00
2023-03-29T04:26:55.524Z,0.00
2023-03-29T04:27:55.499Z,0.00
2023-03-29T04:28:55.620Z,0.00
2023-03-29T04:29:55.486Z,0.00
2023-03-29T04:30:55.487Z,0.00
2023-03-29T04:31:55.478Z,0.00
2023-03-29T04:32:55.642Z,0.00
2023-03-29T04:33:56.340Z,0.00
2023-03-29T04:34:55.562Z,0.00
2023-03-29T04:35:55.435Z,0.00
2023-03-29T04:36:55.363Z,1.00
2023-03-29T04:37:55.398Z,0.00
2023-03-29T04:38:55.403Z,0.00
2023-03-29T04:39:55.374Z,0.00
2023-03-29T04:40:55.624Z,1.00
2023-03-29T04:41:55.302Z,1.00
2023-03-29T04:42:55.291Z,1.00
2023-03-29T04:43:55.350Z,0.00
2023-03-29T04:44:55.349Z,0.00
2023-03-29T04:45:55.338Z,0.00
2023-03-29T04:46:55.512Z,0.00
2023-03-29T04:47:55.344Z,0.00
2023-03-29T04:48:55.291Z,0.00
2023-03-29T04:49:55.264Z,0.00
2023-03-29T04:50:55.219Z,2.00
2023-03-29T04:51:55.201Z,2.00
2023-03-29T04:52:55.215Z,1.00
2023-03-29T04:53:55.238Z,0.00
2023-03-29T04:54:55.175Z,1.00
2023-03-29T04:55:55.156Z,1.00
2023-03-29T04:56:55.199Z,1.00
2023-03-29T04:57:55.386Z,0.00
2023-03-29T04:58:55.308Z,2.00
2023-03-29T04:59:55.109Z,1.00
2023-03-29T05:00:55.121Z,1.00
2023-03-29T05:01:55.147Z,1.00
2023-03-29T05:02:55.167Z,1.00
2023-03-29T05:03:55.117Z,1.00
2023-03-29T05:04:55.256Z,1.00
2023-03-29T05:05:55.043Z,7.00
2023-03-29T05:06:55.036Z,7.00
2023-03-29T05:07:55.032Z,7.00
2023-03-29T05:08:55.029Z,7.00
2023-03-29T05:09:55.081Z,1.00
2023-03-29T05:10:55.162Z,1.00
2023-03-29T05:11:54.980Z,3.00
2023-03-29T05:12:54.978Z,7.00
2023-03-29T05:13:54.965Z,7.00
2023-03-29T05:14:54.955Z,3.00
2023-03-29T05:15:54.957Z,7.00
2023-03-29T05:16:55.115Z,3.00
2023-03-29T05:17:54.964Z,3.00
2023-03-29T05:18:54.933Z,2.00
2023-03-29T05:19:54.897Z,4.00
2023-03-29T05:20:54.891Z,4.00
2023-03-29T05:21:54.882Z,2.00
2023-03-29T05:22:54.902Z,2.00
2023-03-29T05:23:54.848Z,2.00
2023-03-29T05:24:54.861Z,2.00
2023-03-29T05:25:54.875Z,2.00
2023-03-29T05:26:54.826Z,2.00
2023-03-29T05:27:54.807Z,2.00
2023-03-29T05:28:54.830Z,2.00
2023-03-29T05:29:54.788Z,2.00
2023-03-29T05:30:54.787Z,3.00
2023-03-29T05:32:03.068Z,1.00
2023-03-29T05:32:54.796Z,1.00
2023-03-29T05:33:54.752Z,1.00
2023-03-29T05:34:55.048Z,3.00
2023-03-29T05:35:54.810Z,7.00
2023-03-29T05:36:54.721Z,1.00
2023-03-29T05:37:54.700Z,1.00
2023-03-29T05:38:54.709Z,1.00
2023-03-29T05:39:54.684Z,2.00
2023-03-29T05:40:54.812Z,4.00
2023-03-29T05:41:54.654Z,4.00
2023-03-29T05:42:54.657Z,4.00
2023-03-29T05:43:54.637Z,4.00
2023-03-29T05:44:54.703Z,4.00
2023-03-29T05:45:54.665Z,4.00
2023-03-29T05:46:54.677Z,4.00
2023-03-29T05:47:54.722Z,3.00
2023-03-29T05:48:54.597Z,1.00
2023-03-29T05:49:54.569Z,1.00
2023-03-29T05:50:54.565Z,3.00
2023-03-29T05:51:54.555Z,7.00
2023-03-29T05:52:54.605Z,6.00
2023-03-29T05:53:54.537Z,5.00
2023-03-29T05:54:54.523Z,6.00
2023-03-29T05:55:54.523Z,8.00
2023-03-29T05:56:54.576Z,8.00
2023-03-29T05:57:54.488Z,9.00
2023-03-29T05:58:55.166Z,7.00
2023-03-29T05:59:54.495Z,3.00
2023-03-29T06:00:54.476Z,5.00
2023-03-29T06:01:54.476Z,5.00
2023-03-29T06:02:54.549Z,5.00
2023-03-29T06:03:54.643Z,3.00
2023-03-29T06:04:54.574Z,5.00
2023-03-29T06:05:54.423Z,7.00
2023-03-29T06:06:54.617Z,3.00
2023-03-29T06:07:54.692Z,5.00
2023-03-29T06:08:54.391Z,7.00
2023-03-29T06:09:54.359Z,7.00
2023-03-29T06:10:54.499Z,7.00
2023-03-29T06:11:54.334Z,9.00
2023-03-29T06:12:54.333Z,9.00
2023-03-29T06:13:54.316Z,9.00
2023-03-29T06:14:54.314Z,15.00
2023-03-29T06:15:54.300Z,12.00
2023-03-29T06:16:54.487Z,10.00
2023-03-29T06:17:54.361Z,9.00
2023-03-29T06:18:54.275Z,8.00
2023-03-29T06:19:54.257Z,9.00
2023-03-29T06:20:54.249Z,15.00
2023-03-29T06:21:54.238Z,12.00
2023-03-29T06:22:54.272Z,14.00
2023-03-29T06:23:54.228Z,14.00
2023-03-29T06:24:54.201Z,16.00
2023-03-29T06:25:54.203Z,15.00
2023-03-29T06:26:54.189Z,16.00
2023-03-29T06:27:54.185Z,15.00
2023-03-29T06:28:54.311Z,12.00
2023-03-29T06:29:54.197Z,11.00
2023-03-29T06:30:54.175Z,13.00
2023-03-29T06:31:54.141Z,9.00
2023-03-29T06:32:54.229Z,9.00
2023-03-29T06:33:54.131Z,8.00
2023-03-29T06:34:54.256Z,10.00
2023-03-29T06:35:54.137Z,10.00
2023-03-29T06:36:54.087Z,11.00
2023-03-29T06:37:54.075Z,11.00
2023-03-29T06:38:54.060Z,9.00
2023-03-29T06:39:54.059Z,7.00
2023-03-29T06:40:54.200Z,9.00
2023-03-29T06:41:54.057Z,7.00
2023-03-29T06:42:54.008Z,7.00
2023-03-29T06:43:54.016Z,7.00
2023-03-29T06:44:54.057Z,7.00
2023-03-29T06:45:54.050Z,9.00
2023-03-29T06:46:54.285Z,9.00
2023-03-29T06:47:54.075Z,9.00
2023-03-29T06:48:53.973Z,11.00
2023-03-29T06:49:53.950Z,10.00
2023-03-29T06:50:53.930Z,10.00
2023-03-29T06:51:53.922Z,9.00
2023-03-29T06:52:53.944Z,9.00
2023-03-29T06:53:53.907Z,7.00
2023-03-29T06:54:53.887Z,7.00
2023-03-29T06:55:53.883Z,8.00
2023-03-29T06:56:53.893Z,11.00
2023-03-29T06:57:53.859Z,12.00
2023-03-29T06:58:53.986Z,15.00
2023-03-29T06:59:53.841Z,3.00
2023-03-29T07:00:53.884Z,17.00
2023-03-29T07:01:54.002Z,15.00
2023-03-29T07:02:53.875Z,18.00
2023-03-29T07:03:53.823Z,18.00
2023-03-29T07:04:53.828Z,17.00
2023-03-29T07:05:53.774Z,17.00
2023-03-29T07:06:53.776Z,16.00
2023-03-29T07:07:53.770Z,18.00
2023-03-29T07:08:53.750Z,17.00
2023-03-29T07:09:53.772Z,17.00
2023-03-29T07:10:54.047Z,16.00
2023-03-29T07:11:53.717Z,15.00
2023-03-29T07:12:53.698Z,16.00
2023-03-29T07:13:53.690Z,17.00
2023-03-29T07:14:53.686Z,12.00
2023-03-29T07:15:53.748Z,10.00
2023-03-29T07:16:53.782Z,14.00
2023-03-29T07:17:53.668Z,14.00
2023-03-29T07:18:53.638Z,14.00
2023-03-29T07:19:53.635Z,14.00
2023-03-29T07:20:53.613Z,18.00
2023-03-29T07:21:53.600Z,18.00
2023-03-29T07:22:53.741Z,18.00
2023-03-29T07:23:53.576Z,16.00
2023-03-29T07:24:53.569Z,16.00
2023-03-29T07:25:53.784Z,12.00
2023-03-29T07:27:03.385Z,16.00
2023-03-29T07:27:53.536Z,16.00
2023-03-29T07:28:53.677Z,14.00
2023-03-29T07:29:53.511Z,11.00
2023-03-29T07:30:53.516Z,24.00
2023-03-29T07:31:53.500Z,26.00
2023-03-29T07:32:53.694Z,27.00
2023-03-29T07:33:53.701Z,24.00
2023-03-29T07:34:53.500Z,25.00
2023-03-29T07:35:53.509Z,23.00
2023-03-29T07:36:53.446Z,18.00
2023-03-29T07:37:53.434Z,30.00
2023-03-29T07:38:55.886Z,29.00
2023-03-29T07:39:53.420Z,29.00
2023-03-29T07:40:53.559Z,40.00
2023-03-29T07:41:53.383Z,40.00
2023-03-29T07:42:53.367Z,42.00
2023-03-29T07:43:53.380Z,30.00
2023-03-29T07:44:53.361Z,25.00
2023-03-29T07:45:53.403Z,36.00
2023-03-29T07:46:53.495Z,24.00
2023-03-29T07:47:53.377Z,22.00
2023-03-29T07:48:53.319Z,21.00
2023-03-29T07:49:53.311Z,22.00
2023-03-29T07:50:53.290Z,27.00
2023-03-29T07:51:53.277Z,29.00
2023-03-29T07:52:53.308Z,33.00
2023-03-29T07:53:53.272Z,33.00
2023-03-29T07:54:53.254Z,36.00
2023-03-29T07:55:53.238Z,42.00
2023-03-29T07:56:53.241Z,38.00
2023-03-29T07:57:53.213Z,46.00
2023-03-29T07:58:53.349Z,36.00
2023-03-29T07:59:53.194Z,35.00
2023-03-29T08:00:53.228Z,53.00
2023-03-29T08:01:53.186Z,54.00
2023-03-29T08:02:53.216Z,51.00
2023-03-29T08:03:53.322Z,52.00
2023-03-29T08:04:53.354Z,48.00
2023-03-29T08:05:53.144Z,52.00
2023-03-29T08:06:53.124Z,48.00
2023-03-29T08:07:53.118Z,41.00
2023-03-29T08:08:53.108Z,58.00
2023-03-29T08:09:53.097Z,41.00
2023-03-29T08:10:53.108Z,55.00
2023-03-29T08:11:53.072Z,43.00
2023-03-29T08:12:53.054Z,49.00
2023-03-29T08:13:53.043Z,39.00
2023-03-29T08:14:53.037Z,37.00
2023-03-29T08:15:53.034Z,40.00
2023-03-29T08:16:53.238Z,37.00
2023-03-29T08:17:53.038Z,31.00
2023-03-29T08:18:53.024Z,30.00
2023-03-29T08:19:52.993Z,27.00
2023-03-29T08:20:52.980Z,29.00
2023-03-29T08:21:52.974Z,27.00
2023-03-29T08:22:53.014Z,25.00
2023-03-29T08:23:52.963Z,28.00
2023-03-29T08:24:52.933Z,26.00
2023-03-29T08:25:52.922Z,22.00
2023-03-29T08:26:52.922Z,30.00
2023-03-29T08:27:52.906Z,33.00
2023-03-29T08:28:53.026Z,25.00
2023-03-29T08:29:52.890Z,24.00
2023-03-29T08:30:52.943Z,21.00
2023-03-29T08:32:01.098Z,22.00
2023-03-29T08:32:54.545Z,27.00
2023-03-29T08:33:52.868Z,25.00
2023-03-29T08:34:52.978Z,40.00
2023-03-29T08:35:52.911Z,32.00
2023-03-29T08:36:52.836Z,33.00
2023-03-29T08:37:52.919Z,48.00
2023-03-29T08:38:52.794Z,47.00
2023-03-29T08:39:52.795Z,32.00
2023-03-29T08:40:52.928Z,32.00
2023-03-29T08:41:52.780Z,32.00
2023-03-29T08:42:52.780Z,35.00
2023-03-29T08:43:52.766Z,28.00
2023-03-29T08:44:52.730Z,34.00
2023-03-29T08:45:52.782Z,28.00
2023-03-29T08:46:52.900Z,36.00
2023-03-29T08:47:52.794Z,37.00
2023-03-29T08:48:52.696Z,34.00
2023-03-29T08:49:52.696Z,39.00
2023-03-29T08:50:52.696Z,50.00
2023-03-29T08:51:52.682Z,55.00
2023-03-29T08:52:52.698Z,51.00
2023-03-29T08:53:52.705Z,51.00
2023-03-29T08:54:52.653Z,43.00
2023-03-29T08:55:52.630Z,44.00
2023-03-29T08:56:52.647Z,37.00
2023-03-29T08:57:52.605Z,33.00
2023-03-29T08:58:52.846Z,25.00
2023-03-29T08:59:52.623Z,23.00
2023-03-29T09:00:52.585Z,30.00
2023-03-29T09:01:52.638Z,38.00
2023-03-29T09:02:52.664Z,40.00
2023-03-29T09:03:52.617Z,32.00
2023-03-29T09:04:52.570Z,37.00
2023-03-29T09:05:52.577Z,36.00
2023-03-29T09:06:52.490Z,41.00
2023-03-29T09:07:52.484Z,39.00
2023-03-29T09:08:52.488Z,39.00
2023-03-29T09:09:52.477Z,38.00
2023-03-29T09:10:52.538Z,41.00
2023-03-29T09:11:52.453Z,40.00
2023-03-29T09:12:52.458Z,41.00
2023-03-29T09:13:52.421Z,34.00
2023-03-29T09:14:52.555Z,33.00
2023-03-29T09:15:52.473Z,32.00
2023-03-29T09:16:52.556Z,40.00
2023-03-29T09:17:52.439Z,34.00
2023-03-29T09:18:52.408Z,24.00
2023-03-29T09:19:52.372Z,31.00
2023-03-29T09:20:52.344Z,31.00
2023-03-29T09:21:52.371Z,31.00
2023-03-29T09:22:52.341Z,27.00
2023-03-29T09:23:52.720Z,31.00
2023-03-29T09:24:52.308Z,28.00
2023-03-29T09:25:54.129Z,26.00
2023-03-29T09:26:52.288Z,25.00
2023-03-29T09:27:52.277Z,28.00
2023-03-29T09:28:52.423Z,24.00
2023-03-29T09:29:52.253Z,28.00
2023-03-29T09:30:52.234Z,32.00
2023-03-29T09:31:59.596Z,32.00
2023-03-29T09:32:52.301Z,31.00
2023-03-29T09:33:52.210Z,30.00
2023-03-29T09:34:52.216Z,32.00
2023-03-29T09:35:52.213Z,24.00
2023-03-29T09:36:52.161Z,22.00
2023-03-29T09:37:52.174Z,29.00
2023-03-29T09:38:52.146Z,24.00
2023-03-29T09:39:52.135Z,27.00
2023-03-29T09:40:52.271Z,24.00
2023-03-29T09:41:52.120Z,37.00
2023-03-29T09:42:52.098Z,38.00
2023-03-29T09:43:52.124Z,33.00
2023-03-29T09:44:52.083Z,39.00
2023-03-29T09:45:52.098Z,38.00
2023-03-29T09:46:52.091Z,32.00
2023-03-29T09:47:52.121Z,34.00
2023-03-29T09:48:52.044Z,36.00
2023-03-29T09:49:52.024Z,38.00
2023-03-29T09:50:52.025Z,36.00
2023-03-29T09:51:52.007Z,38.00
2023-03-29T09:52:52.017Z,41.00
2023-03-29T09:53:51.988Z,39.00
2023-03-29T09:54:51.968Z,43.00
2023-03-29T09:55:51.964Z,38.00
2023-03-29T09:56:51.980Z,42.00
2023-03-29T09:57:52.052Z,38.00
2023-03-29T09:58:52.100Z,49.00
2023-03-29T09:59:51.933Z,48.00
2023-03-29T10:00:51.915Z,51.00
2023-03-29T10:01:52.083Z,42.00
2023-03-29T10:02:51.939Z,44.00
2023-03-29T10:03:51.914Z,48.00
2023-03-29T10:04:52.164Z,42.00
2023-03-29T10:05:51.865Z,51.00
2023-03-29T10:06:51.840Z,54.00
2023-03-29T10:07:51.881Z,50.00
2023-03-29T10:08:51.873Z,41.00
2023-03-29T10:09:51.818Z,48.00
2023-03-29T10:10:51.985Z,38.00
2023-03-29T10:11:51.823Z,53.00
2023-03-29T10:12:51.835Z,52.00
2023-03-29T10:13:51.776Z,43.00
2023-03-29T10:14:53.566Z,36.00
2023-03-29T10:15:51.749Z,41.00
2023-03-29T10:16:51.907Z,39.00
2023-03-29T10:17:51.798Z,42.00
2023-03-29T10:18:51.730Z,47.00
2023-03-29T10:19:51.708Z,43.00
2023-03-29T10:20:51.705Z,48.00
2023-03-29T10:21:51.693Z,41.00
2023-03-29T10:22:51.716Z,45.00
2023-03-29T10:23:51.666Z,37.00
2023-03-29T10:24:51.669Z,27.00
2023-03-29T10:25:51.644Z,31.00
2023-03-29T10:26:51.644Z,34.00
2023-03-29T10:27:51.626Z,31.00
2023-03-29T10:28:51.745Z,28.00
2023-03-29T10:29:51.617Z,26.00
2023-03-29T10:30:51.595Z,24.00
2023-03-29T10:32:00.193Z,20.00
2023-03-29T10:32:51.656Z,33.00
2023-03-29T10:33:51.595Z,27.00
2023-03-29T10:34:51.726Z,27.00
2023-03-29T10:35:51.626Z,33.00
2023-03-29T10:36:51.582Z,33.00
2023-03-29T10:37:51.534Z,33.00
2023-03-29T10:38:51.550Z,30.00
2023-03-29T10:39:51.496Z,35.00
2023-03-29T10:40:51.659Z,29.00
2023-03-29T10:41:51.515Z,32.00
2023-03-29T10:42:51.623Z,35.00
2023-03-29T10:43:51.523Z,31.00
2023-03-29T10:44:51.479Z,35.00
2023-03-29T10:45:51.472Z,30.00
2023-03-29T10:46:51.593Z,27.00
2023-03-29T10:47:51.482Z,27.00
2023-03-29T10:48:51.431Z,31.00
2023-03-29T10:49:52.138Z,29.00
2023-03-29T10:50:51.444Z,30.00
2023-03-29T10:51:51.389Z,34.00
2023-03-29T10:52:51.433Z,28.00
2023-03-29T10:53:51.369Z,27.00
2023-03-29T10:54:51.358Z,28.00
2023-03-29T10:55:51.363Z,28.00
2023-03-29T10:56:52.506Z,25.00
2023-03-29T10:57:51.327Z,23.00
2023-03-29T10:58:51.440Z,22.00
2023-03-29T10:59:51.307Z,28.00
2023-03-29T11:00:51.305Z,34.00
2023-03-29T11:01:51.431Z,29.00
2023-03-29T11:02:51.395Z,25.00
2023-03-29T11:03:51.322Z,24.00
2023-03-29T11:04:51.310Z,30.00
2023-03-29T11:05:51.276Z,33.00
2023-03-29T11:06:51.222Z,28.00
2023-03-29T11:07:51.223Z,32.00
2023-03-29T11:08:51.240Z,30.00
2023-03-29T11:09:51.197Z,29.00
2023-03-29T11:10:51.454Z,27.00
2023-03-29T11:11:56.178Z,30.00
2023-03-29T11:12:51.170Z,33.00
2023-03-29T11:13:51.167Z,35.00
2023-03-29T11:14:51.152Z,29.00
2023-03-29T11:15:51.192Z,28.00
2023-03-29T11:16:51.274Z,27.00
2023-03-29T11:17:51.163Z,32.00
2023-03-29T11:18:51.130Z,31.00
2023-03-29T11:19:51.151Z,33.00
2023-03-29T11:20:51.084Z,29.00
2023-03-29T11:21:51.082Z,30.00
2023-03-29T11:22:51.127Z,30.00
2023-03-29T11:23:51.059Z,27.00
2023-03-29T11:24:51.031Z,28.00
2023-03-29T11:25:51.007Z,26.00
2023-03-29T11:26:51.026Z,29.00
2023-03-29T11:27:50.987Z,30.00
2023-03-29T11:28:51.140Z,27.00
2023-03-29T11:29:50.993Z,28.00
2023-03-29T11:30:51.015Z,26.00
2023-03-29T11:31:50.969Z,26.00
2023-03-29T11:32:50.974Z,25.00
2023-03-29T11:33:50.977Z,26.00
2023-03-29T11:34:51.062Z,26.00
2023-03-29T11:35:50.942Z,26.00
2023-03-29T11:36:50.929Z,26.00
2023-03-29T11:37:50.892Z,25.00
2023-03-29T11:38:50.869Z,26.00
2023-03-29T11:39:50.903Z,28.00
2023-03-29T11:40:51.099Z,25.00
2023-03-29T11:41:50.852Z,29.00
2023-03-29T11:42:50.901Z,22.00
2023-03-29T11:43:50.846Z,22.00
2023-03-29T11:44:52.250Z,27.00
2023-03-29T11:45:50.812Z,35.00
2023-03-29T11:46:50.981Z,29.00
2023-03-29T11:47:50.914Z,27.00
2023-03-29T11:48:50.782Z,29.00
2023-03-29T11:49:50.801Z,29.00
2023-03-29T11:50:50.764Z,28.00
2023-03-29T11:51:50.741Z,38.00
2023-03-29T11:52:50.772Z,33.00
2023-03-29T11:53:50.710Z,37.00
2023-03-29T11:54:50.750Z,31.00
2023-03-29T11:55:50.713Z,38.00
2023-03-29T11:56:50.739Z,39.00
2023-03-29T11:57:50.751Z,42.00
2023-03-29T11:58:50.814Z,39.00
2023-03-29T11:59:50.673Z,37.00
2023-03-29T12:00:50.658Z,37.00
2023-03-29T12:01:50.675Z,37.00
2023-03-29T12:02:50.719Z,39.00
2023-03-29T12:03:50.718Z,36.00
2023-03-29T12:04:50.766Z,34.00
2023-03-29T12:05:50.602Z,34.00
2023-03-29T12:06:50.570Z,43.00
2023-03-29T12:07:50.588Z,51.00
2023-03-29T12:08:50.566Z,49.00
2023-03-29T12:09:50.537Z,43.00
2023-03-29T12:10:50.691Z,37.00
2023-03-29T12:11:50.558Z,69.00
2023-03-29T12:12:50.662Z,65.00
2023-03-29T12:13:50.512Z,72.00
2023-03-29T12:14:50.492Z,73.00
2023-03-29T12:15:50.506Z,69.00
2023-03-29T12:16:50.523Z,66.00
2023-03-29T12:17:50.511Z,61.00
2023-03-29T12:18:50.457Z,74.00
2023-03-29T12:19:50.472Z,86.00
2023-03-29T12:20:50.425Z,89.00
2023-03-29T12:21:50.410Z,84.00
2023-03-29T12:22:50.439Z,82.00
2023-03-29T12:23:50.412Z,67.00
2023-03-29T12:24:50.415Z,70.00
2023-03-29T12:25:50.381Z,54.00
2023-03-29T12:26:50.384Z,67.00
2023-03-29T12:27:50.352Z,78.00
2023-03-29T12:28:50.472Z,55.00
2023-03-29T12:29:50.341Z,60.00
2023-03-29T12:30:50.333Z,68.00
2023-03-29T12:31:50.380Z,70.00
2023-03-29T12:32:50.550Z,79.00
2023-03-29T12:33:50.305Z,66.00
2023-03-29T12:34:50.436Z,70.00
2023-03-29T12:35:50.286Z,81.00
2023-03-29T12:36:50.282Z,67.00
2023-03-29T12:37:50.280Z,69.00
2023-03-29T12:38:50.263Z,66.00
2023-03-29T12:39:50.231Z,84.00
2023-03-29T12:40:50.413Z,62.00
2023-03-29T12:41:50.209Z,52.00
2023-03-29T12:42:50.213Z,60.00
2023-03-29T12:43:50.203Z,77.00
2023-03-29T12:44:50.194Z,81.00
2023-03-29T12:45:50.229Z,85.00
2023-03-29T12:46:50.324Z,84.00
2023-03-29T12:47:50.320Z,71.00
2023-03-29T12:48:50.153Z,60.00
2023-03-29T12:49:50.129Z,58.00
2023-03-29T12:50:50.116Z,61.00
2023-03-29T12:51:50.128Z,63.00
2023-03-29T12:52:50.139Z,60.00
2023-03-29T12:53:50.070Z,48.00
2023-03-29T12:54:50.065Z,66.00
2023-03-29T12:55:50.054Z,79.00
2023-03-29T12:56:50.061Z,77.00
2023-03-29T12:57:50.034Z,68.00
2023-03-29T12:58:50.180Z,68.00
2023-03-29T12:59:50.023Z,74.00
2023-03-29T13:00:50.004Z,88.00
2023-03-29T13:01:50.084Z,92.00
2023-03-29T13:02:50.048Z,78.00
2023-03-29T13:03:49.981Z,90.00
2023-03-29T13:04:50.083Z,76.00
2023-03-29T13:05:49.976Z,62.00
2023-03-29T13:06:51.121Z,53.00